ADDS METAR Data INFO
IDs: Format: Raw Decoded Include TAF

Data at: 1945 UTC 17 Feb 2018

KSNS 171853Z 11011KT 10SM CLR 17/M01 A3015 RMK AO2 SLP217 T01671006
KSNS 171753Z 11014KT 10SM CLR 13/01 A3016 RMK AO2 SLP221 T01280011 10128 20033 50002
KSNS 171653Z 10011KT 10SM CLR 09/M01 A3017 RMK AO2 SLP224 T00941011
KSNS 171553Z 09008KT 10SM CLR 07/M01 A3016 RMK AO2 SLP223 T00671011
KSNS 171453Z 08005KT 10SM CLR 03/M01 A3015 RMK AO2 SLP220 T00331011 55005
KSNS 171353Z AUTO 10007KT 10SM CLR 04/M01 A3014 RMK AO2 SLP216 T00441006
KSNS 171253Z AUTO 11007KT 10SM CLR 04/00 A3015 RMK AO2 SLP218 T00440000
KSNS 171153Z AUTO 07003KT 10SM CLR 04/01 A3017 RMK AO2 SLP225 T00390011 10083 20039 58005
KSNS 171053Z AUTO 14005KT 10SM CLR 06/02 A3018 RMK AO2 SLP229 T00560017
KSNS 170953Z AUTO 10005KT 10SM CLR 06/03 A3018 RMK AO2 SLP229 T00560028
KSNS 170853Z AUTO 00000KT 10SM CLR 07/04 A3019 RMK AO2 SLP230 T00720039 50002
KSNS 170753Z AUTO 08005KT 10SM CLR 06/03 A3019 RMK AO2 SLP232 T00560033 402060011
KSNS 170653Z AUTO 00000KT 10SM CLR 07/05 A3018 RMK AO2 SLP229 T00720050
KSNS 170553Z AUTO 00000KT 10SM CLR 07/05 A3018 RMK AO2 SLP229 T00720050 10167 20067 51009
KSNS 170453Z AUTO 01003KT 10SM CLR 09/07 A3018 RMK AO2 SLP227 T00940067
KSNS 170353Z AUTO 33003KT 10SM CLR 11/07 A3017 RMK AO2 SLP226 T01110072
KSNS 170253Z 26004KT 10SM CLR 12/08 A3015 RMK AO2 SLP221 T01220083 53004
KSNS 170153Z 28006KT 10SM CLR 13/08 A3014 RMK AO2 SLP216 T01280083
KSNS 170053Z 28007KT 10SM CLR 14/08 A3014 RMK AO2 SLP216 T01440078
KSNS 162353Z 27010KT 10SM CLR 17/06 A3014 RMK AO2 SLP215 T01670056 10206 20122 56014
KSNS 162253Z 27012KT 10SM CLR 17/03 A3015 RMK AO2 SLP217 T01670028
KSNS 162153Z 27014KT 10SM CLR 19/M01 A3015 RMK AO2 SLP218 T01941006
KSNS 162053Z VRB03KT 10SM CLR 19/M05 A3018 RMK AO2 SLP230 T01891050 58033
KSNS 161953Z 00000KT 10SM CLR 17/M06 A3023 RMK AO2 SLP245 T01721056
KSNS 161853Z 11004KT 10SM CLR 15/M03 A3026 RMK AO2 SLP255 T01501033
KSNS 161753Z 12009KT 10SM CLR 12/M02 A3028 RMK AO2 SLP262 T01221022 10122 20017 51006
KSNS 161653Z 11015KT 10SM CLR 08/M03 A3027 RMK AO2 SLP259 T00831033
KSNS 161553Z 09008KT 10SM CLR 04/M04 A3028 RMK AO2 SLP264 T00441039
KSNS 161453Z 09008KT 10SM CLR 03/M04 A3026 RMK AO2 SLP257 T00331044 53005
KSNS 161353Z AUTO 09004KT 10SM CLR 02/M03 A3024 RMK AO2 SLP250 T00221033
KSNS 161253Z AUTO 09005KT 10SM CLR 02/M03 A3023 RMK AO2 SLP247 T00221028
KSNS 161153Z AUTO 12005KT 10SM CLR 02/M02 A3025 RMK AO2 SLP251 T00221017 10089 20011 58013
KSNS 161053Z AUTO 13004KT 10SM CLR 04/M02 A3026 RMK AO2 SLP257 T00391017
KSNS 160953Z AUTO 08004KT 10SM CLR 04/M01 A3029 RMK AO2 SLP265 T00441011
KSNS 160853Z AUTO 00000KT 10SM CLR 04/01 A3029 RMK AO2 SLP264 T00440011 58001
KSNS 160753Z AUTO 00000KT 10SM CLR 07/02 A3030 RMK AO2 SLP268 T00720022 401940028